NSZ3858 EKBI-EGPH
Flight info
| Callsign | NSZ3858 |
|---|---|
| Flight time | 1h 17m |
| Altitude | 34000 |
| Route | BAMPI DCT BUSOM L983 PETIL DCT SURAT DCT ROBEM DCT AGPED |
| Aircraft | A320/M-SDE3FGHIRWY/LB1 |
Departure
| Time | 2026-04-25 20:31 |
|---|---|
| Airport | Billund Airport (EKBI) |
Arrival
| Time | 2026-04-25 21:49 |
|---|---|
| Airport | Edinburgh Airport (EGPH) |
| Time | Latitude | Longitude | Altitude | Speed | Heading |
|---|---|---|---|---|---|
| 2026-04-25 20:02 | 55.74527 | 9.14618 | 216 ft | 0 kts | 357° |
| 2026-04-25 20:20 | 55.74517 | 9.14619 | 220 ft | 4 kts | 357° |
| 2026-04-25 20:21 | 55.74490 | 9.14621 | 219 ft | 4 kts | 359° |
| 2026-04-25 20:21 | 55.74464 | 9.14619 | 219 ft | 4 kts | 13° |
| 2026-04-25 20:21 | 55.74445 | 9.14603 | 221 ft | 3 kts | 78° |
| 2026-04-25 20:21 | 55.74444 | 9.14596 | 220 ft | 0 kts | 87° |
| 2026-04-25 20:24 | 55.74444 | 9.14610 | 216 ft | 3 kts | 87° |
| 2026-04-25 20:24 | 55.74446 | 9.14677 | 219 ft | 8 kts | 87° |
| 2026-04-25 20:25 | 55.74448 | 9.14785 | 216 ft | 10 kts | 87° |
| 2026-04-25 20:25 | 55.74452 | 9.14907 | 216 ft | 10 kts | 88° |
| 2026-04-25 20:25 | 55.74414 | 9.14976 | 218 ft | 9 kts | 169° |
| 2026-04-25 20:25 | 55.74340 | 9.14985 | 218 ft | 12 kts | 177° |
| 2026-04-25 20:26 | 55.74252 | 9.14994 | 216 ft | 11 kts | 176° |
| 2026-04-25 20:26 | 55.74198 | 9.15074 | 216 ft | 12 kts | 95° |
| 2026-04-25 20:26 | 55.74203 | 9.15222 | 216 ft | 12 kts | 86° |
| 2026-04-25 20:26 | 55.74208 | 9.15381 | 225 ft | 14 kts | 87° |
| 2026-04-25 20:27 | 55.74213 | 9.15568 | 216 ft | 16 kts | 87° |
| 2026-04-25 20:27 | 55.74219 | 9.15785 | 216 ft | 19 kts | 87° |
| 2026-04-25 20:27 | 55.74225 | 9.15975 | 216 ft | 15 kts | 86° |
| 2026-04-25 20:27 | 55.74232 | 9.16175 | 216 ft | 17 kts | 86° |
| 2026-04-25 20:28 | 55.74238 | 9.16394 | 219 ft | 19 kts | 86° |
| 2026-04-25 20:28 | 55.74247 | 9.16645 | 216 ft | 22 kts | 86° |
| 2026-04-25 20:28 | 55.74254 | 9.16900 | 220 ft | 18 kts | 87° |
| 2026-04-25 20:28 | 55.74262 | 9.17141 | 216 ft | 21 kts | 87° |
| 2026-04-25 20:29 | 55.74270 | 9.17412 | 216 ft | 22 kts | 87° |
| 2026-04-25 20:29 | 55.74278 | 9.17680 | 216 ft | 20 kts | 86° |
| 2026-04-25 20:29 | 55.74285 | 9.17895 | 216 ft | 16 kts | 87° |
| 2026-04-25 20:29 | 55.74268 | 9.18094 | 225 ft | 17 kts | 133° |
| 2026-04-25 20:30 | 55.74157 | 9.18143 | 220 ft | 16 kts | 192° |
| 2026-04-25 20:30 | 55.74120 | 9.17986 | 224 ft | 11 kts | 266° |
| 2026-04-25 20:30 | 55.74119 | 9.17931 | 223 ft | 0 kts | 267° |
| 2026-04-25 20:30 | 55.74117 | 9.17888 | 219 ft | 23 kts | 267° |
| 2026-04-25 20:31 | 55.74095 | 9.17158 | 216 ft | 90 kts | 266° |
| 2026-04-25 20:31 | 55.74052 | 9.15741 | 217 ft | 138 kts | 266° |
| 2026-04-25 20:31 | 55.74012 | 9.13935 | 630 ft | 146 kts | 269° |
| 2026-04-25 20:31 | 55.74138 | 9.12157 | 1192 ft | 148 kts | 303° |
| 2026-04-25 20:32 | 55.74764 | 9.10695 | 1728 ft | 153 kts | 313° |
| 2026-04-25 20:32 | 55.75459 | 9.09082 | 2022 ft | 176 kts | 312° |
| 2026-04-25 20:32 | 55.76234 | 9.07238 | 2331 ft | 195 kts | 311° |
| 2026-04-25 20:32 | 55.77086 | 9.05196 | 2719 ft | 215 kts | 311° |
| 2026-04-25 20:33 | 55.78022 | 9.02943 | 3212 ft | 235 kts | 311° |
| 2026-04-25 20:33 | 55.78992 | 9.00539 | 4010 ft | 244 kts | 305° |
| 2026-04-25 20:33 | 55.79576 | 8.97639 | 4894 ft | 256 kts | 285° |
| 2026-04-25 20:33 | 55.79748 | 8.95547 | 5509 ft | 259 kts | 281° |
| 2026-04-25 20:34 | 55.79907 | 8.91251 | 6777 ft | 261 kts | 277° |
| 2026-04-25 20:34 | 55.79995 | 8.88019 | 7689 ft | 262 kts | 279° |
| 2026-04-25 20:34 | 55.80109 | 8.84793 | 8590 ft | 262 kts | 281° |
| 2026-04-25 20:34 | 55.80251 | 8.81568 | 9490 ft | 262 kts | 283° |
| 2026-04-25 20:35 | 55.80412 | 8.78337 | 10334 ft | 264 kts | 284° |
| 2026-04-25 20:35 | 55.80615 | 8.74970 | 10601 ft | 285 kts | 285° |
| 2026-04-25 20:35 | 55.80889 | 8.71366 | 10953 ft | 300 kts | 286° |
| 2026-04-25 20:35 | 55.81184 | 8.67673 | 11616 ft | 304 kts | 287° |
| 2026-04-25 20:36 | 55.81438 | 8.63918 | 12344 ft | 308 kts | 284° |
| 2026-04-25 20:36 | 55.81616 | 8.60107 | 13083 ft | 310 kts | 283° |
| 2026-04-25 20:36 | 55.81759 | 8.56268 | 13834 ft | 313 kts | 283° |
| 2026-04-25 20:36 | 55.81893 | 8.52398 | 14496 ft | 314 kts | 283° |
| 2026-04-25 20:37 | 55.82028 | 8.48508 | 15122 ft | 316 kts | 283° |
| 2026-04-25 20:37 | 55.82170 | 8.44585 | 15670 ft | 319 kts | 283° |
| 2026-04-25 20:37 | 55.82318 | 8.40630 | 16250 ft | 322 kts | 283° |
| 2026-04-25 20:37 | 55.82472 | 8.36638 | 16844 ft | 325 kts | 283° |
| 2026-04-25 20:38 | 55.82629 | 8.32617 | 17451 ft | 327 kts | 283° |
| 2026-04-25 20:38 | 55.82785 | 8.28568 | 18048 ft | 329 kts | 283° |
| 2026-04-25 20:38 | 55.82940 | 8.24489 | 18619 ft | 332 kts | 283° |
| 2026-04-25 20:38 | 55.83094 | 8.20378 | 19138 ft | 335 kts | 283° |
| 2026-04-25 20:39 | 55.83247 | 8.16230 | 19664 ft | 338 kts | 282° |
| 2026-04-25 20:39 | 55.83399 | 8.12045 | 20187 ft | 340 kts | 282° |
| 2026-04-25 20:39 | 55.83551 | 8.07825 | 20689 ft | 343 kts | 282° |
| 2026-04-25 20:39 | 55.83602 | 8.06391 | 20853 ft | 344 kts | 282° |
| 2026-04-25 20:40 | 55.83856 | 7.99272 | 21646 ft | 349 kts | 282° |
| 2026-04-25 20:40 | 55.84008 | 7.94949 | 22110 ft | 352 kts | 282° |
| 2026-04-25 20:40 | 55.84162 | 7.90592 | 22521 ft | 354 kts | 282° |
| 2026-04-25 20:40 | 55.84317 | 7.86192 | 22959 ft | 358 kts | 281° |
| 2026-04-25 20:41 | 55.84469 | 7.81748 | 23404 ft | 361 kts | 281° |
| 2026-04-25 20:41 | 55.84621 | 7.77274 | 23839 ft | 364 kts | 281° |
| 2026-04-25 20:41 | 55.84772 | 7.72763 | 24221 ft | 367 kts | 281° |
| 2026-04-25 20:41 | 55.84920 | 7.68217 | 24598 ft | 369 kts | 281° |
| 2026-04-25 20:42 | 55.85068 | 7.63640 | 24984 ft | 371 kts | 281° |
| 2026-04-25 20:42 | 55.85217 | 7.59042 | 25357 ft | 374 kts | 281° |
| 2026-04-25 20:42 | 55.85368 | 7.54409 | 25731 ft | 376 kts | 281° |
| 2026-04-25 20:42 | 55.85519 | 7.49743 | 26096 ft | 379 kts | 281° |
| 2026-04-25 20:43 | 55.85667 | 7.45044 | 26470 ft | 381 kts | 280° |
| 2026-04-25 20:43 | 55.85811 | 7.40322 | 26828 ft | 383 kts | 280° |
| 2026-04-25 20:43 | 55.85952 | 7.35569 | 27177 ft | 386 kts | 280° |
| 2026-04-25 20:43 | 55.86093 | 7.30780 | 27486 ft | 388 kts | 279° |
| 2026-04-25 20:44 | 55.86234 | 7.25965 | 27825 ft | 391 kts | 279° |
| 2026-04-25 20:44 | 55.86375 | 7.21110 | 28179 ft | 394 kts | 279° |
| 2026-04-25 20:44 | 55.86514 | 7.16234 | 28532 ft | 396 kts | 279° |
| 2026-04-25 20:44 | 55.86649 | 7.11326 | 28884 ft | 398 kts | 279° |
| 2026-04-25 20:45 | 55.86787 | 7.06385 | 29235 ft | 401 kts | 279° |
| 2026-04-25 20:45 | 55.86924 | 7.01408 | 29583 ft | 403 kts | 279° |
| 2026-04-25 20:45 | 55.87060 | 6.96408 | 29934 ft | 406 kts | 279° |
| 2026-04-25 20:45 | 55.87196 | 6.91381 | 30265 ft | 408 kts | 279° |
| 2026-04-25 20:46 | 55.87332 | 6.86320 | 30541 ft | 410 kts | 279° |
| 2026-04-25 20:46 | 55.87463 | 6.81251 | 30923 ft | 410 kts | 279° |
| 2026-04-25 20:46 | 55.87590 | 6.76178 | 31283 ft | 410 kts | 278° |
| 2026-04-25 20:46 | 55.87715 | 6.71112 | 31627 ft | 411 kts | 278° |
| 2026-04-25 20:47 | 55.87842 | 6.65981 | 31993 ft | 411 kts | 278° |
| 2026-04-25 20:47 | 55.87967 | 6.60922 | 32366 ft | 411 kts | 278° |
| 2026-04-25 20:47 | 55.88091 | 6.55838 | 32746 ft | 411 kts | 278° |
| 2026-04-25 20:47 | 55.88211 | 6.50747 | 33135 ft | 411 kts | 278° |
| 2026-04-25 20:48 | 55.88331 | 6.45650 | 33517 ft | 411 kts | 278° |
| 2026-04-25 20:48 | 55.88449 | 6.40556 | 33901 ft | 412 kts | 278° |
| 2026-04-25 20:48 | 55.88562 | 6.35459 | 34161 ft | 413 kts | 278° |
| 2026-04-25 20:48 | 55.88673 | 6.30352 | 34215 ft | 413 kts | 278° |
| 2026-04-25 20:49 | 55.88890 | 6.20152 | 34190 ft | 412 kts | 277° |
| 2026-04-25 20:49 | 55.89095 | 6.09915 | 34230 ft | 414 kts | 277° |
| 2026-04-25 20:50 | 55.89258 | 6.01407 | 34225 ft | 414 kts | 277° |
| 2026-04-25 20:50 | 55.89450 | 5.91152 | 34228 ft | 414 kts | 277° |
| 2026-04-25 20:51 | 55.89638 | 5.80910 | 34231 ft | 414 kts | 277° |
| 2026-04-25 20:51 | 55.89823 | 5.70655 | 34231 ft | 414 kts | 277° |
| 2026-04-25 20:52 | 55.89965 | 5.62134 | 34206 ft | 414 kts | 276° |
| 2026-04-25 20:52 | 55.90146 | 5.50113 | 34215 ft | 416 kts | 276° |
| 2026-04-25 20:53 | 55.90302 | 5.39803 | 34219 ft | 416 kts | 276° |
| 2026-04-25 20:53 | 55.90448 | 5.29483 | 34225 ft | 417 kts | 276° |
| 2026-04-25 20:54 | 55.90577 | 5.19150 | 34238 ft | 417 kts | 276° |
| 2026-04-25 20:54 | 55.90699 | 5.08799 | 34244 ft | 418 kts | 276° |
| 2026-04-25 20:55 | 55.90818 | 4.98460 | 34250 ft | 418 kts | 276° |
| 2026-04-25 20:55 | 55.90930 | 4.88113 | 34261 ft | 418 kts | 275° |
| 2026-04-25 20:56 | 55.91037 | 4.77753 | 34262 ft | 418 kts | 275° |
| 2026-04-25 20:56 | 55.91128 | 4.67395 | 34269 ft | 418 kts | 275° |
| 2026-04-25 20:57 | 55.91200 | 4.57034 | 34270 ft | 418 kts | 275° |
| 2026-04-25 20:57 | 55.91270 | 4.46670 | 34256 ft | 418 kts | 274° |
| 2026-04-25 20:58 | 55.91343 | 4.36299 | 34262 ft | 418 kts | 274° |
| 2026-04-25 20:58 | 55.91404 | 4.25925 | 34273 ft | 419 kts | 274° |
| 2026-04-25 20:59 | 55.91446 | 4.15543 | 34275 ft | 419 kts | 274° |
| 2026-04-25 20:59 | 55.91482 | 4.05152 | 34276 ft | 419 kts | 274° |
| 2026-04-25 21:00 | 55.91516 | 3.96449 | 34277 ft | 419 kts | 274° |
| 2026-04-25 21:01 | 55.91557 | 3.79168 | 34249 ft | 420 kts | 273° |
| 2026-04-25 21:01 | 55.91563 | 3.68751 | 34246 ft | 420 kts | 272° |
| 2026-04-25 21:02 | 55.91562 | 3.58323 | 34243 ft | 421 kts | 272° |
| 2026-04-25 21:02 | 55.91386 | 3.47903 | 34245 ft | 423 kts | 264° |
| 2026-04-25 21:03 | 55.90514 | 3.37512 | 34255 ft | 424 kts | 264° |
| 2026-04-25 21:03 | 55.89651 | 3.27116 | 34261 ft | 424 kts | 264° |
| 2026-04-25 21:04 | 55.88794 | 3.16723 | 34268 ft | 424 kts | 264° |
| 2026-04-25 21:04 | 55.87914 | 3.06329 | 34294 ft | 424 kts | 263° |
| 2026-04-25 21:05 | 55.87019 | 2.95936 | 34293 ft | 425 kts | 263° |
| 2026-04-25 21:05 | 55.86113 | 2.85554 | 34308 ft | 425 kts | 263° |
| 2026-04-25 21:06 | 55.85202 | 2.75165 | 34299 ft | 425 kts | 262° |
| 2026-04-25 21:06 | 55.84292 | 2.64771 | 34302 ft | 425 kts | 262° |
| 2026-04-25 21:07 | 55.83368 | 2.54384 | 34308 ft | 425 kts | 262° |
| 2026-04-25 21:07 | 55.82431 | 2.43996 | 34316 ft | 425 kts | 262° |
| 2026-04-25 21:08 | 55.81491 | 2.33609 | 34319 ft | 426 kts | 262° |
| 2026-04-25 21:08 | 55.80537 | 2.23227 | 34321 ft | 426 kts | 261° |
| 2026-04-25 21:09 | 55.79082 | 2.07646 | 34321 ft | 426 kts | 261° |
| 2026-04-25 21:09 | 55.78108 | 1.97261 | 34322 ft | 426 kts | 261° |
| 2026-04-25 21:10 | 55.77123 | 1.86883 | 34323 ft | 426 kts | 261° |
| 2026-04-25 21:10 | 55.76124 | 1.76496 | 34314 ft | 426 kts | 261° |
| 2026-04-25 21:11 | 55.75115 | 1.66120 | 34311 ft | 427 kts | 259° |
| 2026-04-25 21:11 | 55.74092 | 1.55720 | 34311 ft | 428 kts | 259° |
| 2026-04-25 21:12 | 55.73070 | 1.45315 | 34311 ft | 428 kts | 259° |
| 2026-04-25 21:12 | 55.72218 | 1.36659 | 34317 ft | 429 kts | 259° |
| 2026-04-25 21:13 | 55.71006 | 1.24478 | 34323 ft | 429 kts | 259° |
| 2026-04-25 21:13 | 55.69951 | 1.14066 | 34325 ft | 429 kts | 259° |
| 2026-04-25 21:14 | 55.68877 | 1.03657 | 34329 ft | 430 kts | 258° |
| 2026-04-25 21:14 | 55.67798 | 0.93226 | 34331 ft | 430 kts | 259° |
| 2026-04-25 21:15 | 55.66725 | 0.82808 | 34333 ft | 430 kts | 258° |
| 2026-04-25 21:15 | 55.65640 | 0.72396 | 34335 ft | 430 kts | 258° |
| 2026-04-25 21:16 | 55.64536 | 0.61992 | 34339 ft | 430 kts | 258° |
| 2026-04-25 21:16 | 55.63421 | 0.51592 | 34347 ft | 430 kts | 258° |
| 2026-04-25 21:17 | 55.62308 | 0.41222 | 34350 ft | 429 kts | 258° |
| 2026-04-25 21:17 | 55.61193 | 0.30866 | 34349 ft | 428 kts | 258° |
| 2026-04-25 21:18 | 55.60058 | 0.20533 | 34350 ft | 428 kts | 258° |
| 2026-04-25 21:18 | 55.58913 | 0.10206 | 34349 ft | 427 kts | 258° |
| 2026-04-25 21:19 | 55.57762 | -0.00097 | 34352 ft | 427 kts | 257° |
| 2026-04-25 21:19 | 55.56613 | -0.10397 | 34349 ft | 427 kts | 257° |
| 2026-04-25 21:20 | 55.55842 | -0.17272 | 34351 ft | 427 kts | 257° |
| 2026-04-25 21:20 | 55.54282 | -0.30966 | 34348 ft | 427 kts | 257° |
| 2026-04-25 21:21 | 55.53101 | -0.41234 | 34342 ft | 427 kts | 257° |
| 2026-04-25 21:21 | 55.51914 | -0.51491 | 34338 ft | 427 kts | 257° |
| 2026-04-25 21:22 | 55.50723 | -0.61753 | 34333 ft | 427 kts | 257° |
| 2026-04-25 21:22 | 55.49519 | -0.72015 | 34335 ft | 427 kts | 256° |
| 2026-04-25 21:23 | 55.48300 | -0.82274 | 34336 ft | 427 kts | 256° |
| 2026-04-25 21:23 | 55.47073 | -0.92525 | 34337 ft | 427 kts | 256° |
| 2026-04-25 21:24 | 55.45483 | -1.02576 | 34336 ft | 425 kts | 244° |
| 2026-04-25 21:24 | 55.42521 | -1.11526 | 34343 ft | 423 kts | 236° |
| 2026-04-25 21:25 | 55.39388 | -1.20266 | 34041 ft | 419 kts | 237° |
| 2026-04-25 21:25 | 55.37844 | -1.24592 | 33766 ft | 416 kts | 237° |
| 2026-04-25 21:25 | 55.36318 | -1.28863 | 33385 ft | 411 kts | 237° |
| 2026-04-25 21:26 | 55.34802 | -1.33089 | 32929 ft | 407 kts | 237° |
| 2026-04-25 21:26 | 55.33293 | -1.37270 | 32455 ft | 404 kts | 236° |
| 2026-04-25 21:26 | 55.31791 | -1.41417 | 31992 ft | 400 kts | 236° |
| 2026-04-25 21:26 | 55.30300 | -1.45523 | 31528 ft | 397 kts | 236° |
| 2026-04-25 21:27 | 55.28819 | -1.49588 | 31077 ft | 394 kts | 236° |
| 2026-04-25 21:27 | 55.27345 | -1.53631 | 30636 ft | 392 kts | 237° |
| 2026-04-25 21:27 | 55.25883 | -1.57643 | 30133 ft | 389 kts | 237° |
| 2026-04-25 21:27 | 55.24431 | -1.61617 | 29692 ft | 385 kts | 237° |
| 2026-04-25 21:28 | 55.22997 | -1.65536 | 29256 ft | 381 kts | 238° |
| 2026-04-25 21:28 | 55.21579 | -1.69416 | 28850 ft | 377 kts | 238° |
| 2026-04-25 21:28 | 55.20166 | -1.73273 | 28441 ft | 373 kts | 238° |
| 2026-04-25 21:28 | 55.18766 | -1.77079 | 28043 ft | 370 kts | 238° |
| 2026-04-25 21:29 | 55.17374 | -1.80851 | 27654 ft | 367 kts | 238° |
| 2026-04-25 21:29 | 55.15995 | -1.84586 | 27267 ft | 364 kts | 238° |
| 2026-04-25 21:29 | 55.15123 | -1.87079 | 27013 ft | 361 kts | 244° |
| 2026-04-25 21:29 | 55.14074 | -1.92531 | 26522 ft | 355 kts | 262° |
| 2026-04-25 21:30 | 55.13946 | -1.95403 | 26349 ft | 352 kts | 271° |
| 2026-04-25 21:30 | 55.14254 | -1.99696 | 26307 ft | 361 kts | 284° |
| 2026-04-25 21:30 | 55.15145 | -2.03825 | 26315 ft | 367 kts | 297° |
| 2026-04-25 21:30 | 55.16410 | -2.07712 | 26212 ft | 368 kts | 298° |
| 2026-04-25 21:31 | 55.17688 | -2.11595 | 25126 ft | 373 kts | 298° |
| 2026-04-25 21:31 | 55.18994 | -2.15564 | 24114 ft | 376 kts | 299° |
| 2026-04-25 21:31 | 55.20292 | -2.19509 | 23179 ft | 372 kts | 299° |
| 2026-04-25 21:31 | 55.21571 | -2.23406 | 22448 ft | 363 kts | 298° |
| 2026-04-25 21:32 | 55.22822 | -2.27222 | 21942 ft | 360 kts | 298° |
| 2026-04-25 21:32 | 55.24063 | -2.31024 | 21414 ft | 359 kts | 298° |
| 2026-04-25 21:32 | 55.25296 | -2.34814 | 20901 ft | 358 kts | 298° |
| 2026-04-25 21:32 | 55.26526 | -2.38599 | 20448 ft | 355 kts | 298° |
| 2026-04-25 21:33 | 55.27749 | -2.42369 | 19871 ft | 356 kts | 298° |
| 2026-04-25 21:33 | 55.28968 | -2.46134 | 19354 ft | 355 kts | 298° |
| 2026-04-25 21:33 | 55.30189 | -2.49897 | 18852 ft | 354 kts | 298° |
| 2026-04-25 21:33 | 55.31407 | -2.53649 | 18305 ft | 354 kts | 298° |
| 2026-04-25 21:34 | 55.32621 | -2.57391 | 17786 ft | 351 kts | 298° |
| 2026-04-25 21:34 | 55.33806 | -2.61057 | 17630 ft | 339 kts | 298° |
| 2026-04-25 21:34 | 55.34945 | -2.64596 | 17474 ft | 324 kts | 298° |
| 2026-04-25 21:34 | 55.36033 | -2.67990 | 17168 ft | 315 kts | 298° |
| 2026-04-25 21:35 | 55.37101 | -2.71326 | 16818 ft | 313 kts | 298° |
| 2026-04-25 21:35 | 55.38164 | -2.74654 | 16418 ft | 310 kts | 298° |
| 2026-04-25 21:35 | 55.39219 | -2.77953 | 16051 ft | 309 kts | 297° |
| 2026-04-25 21:35 | 55.40337 | -2.81206 | 15679 ft | 316 kts | 307° |
| 2026-04-25 21:36 | 55.41987 | -2.83787 | 15302 ft | 322 kts | 327° |
| 2026-04-25 21:36 | 55.43936 | -2.85778 | 14931 ft | 324 kts | 328° |
| 2026-04-25 21:36 | 55.45890 | -2.87739 | 14602 ft | 320 kts | 329° |
| 2026-04-25 21:36 | 55.47797 | -2.89638 | 14268 ft | 312 kts | 329° |
| 2026-04-25 21:37 | 55.49679 | -2.91512 | 13914 ft | 310 kts | 328° |
| 2026-04-25 21:37 | 55.50916 | -2.92747 | 13667 ft | 308 kts | 328° |
| 2026-04-25 21:37 | 55.53398 | -2.95240 | 13168 ft | 305 kts | 328° |
| 2026-04-25 21:37 | 55.55232 | -2.97094 | 12803 ft | 303 kts | 328° |
| 2026-04-25 21:38 | 55.57062 | -2.98951 | 12436 ft | 302 kts | 328° |
| 2026-04-25 21:38 | 55.58875 | -3.00792 | 12057 ft | 300 kts | 328° |
| 2026-04-25 21:38 | 55.60680 | -3.02619 | 11651 ft | 298 kts | 328° |
| 2026-04-25 21:38 | 55.62472 | -3.04432 | 11259 ft | 296 kts | 328° |
| 2026-04-25 21:39 | 55.64251 | -3.06238 | 10857 ft | 294 kts | 328° |
| 2026-04-25 21:39 | 55.65951 | -3.08212 | 10474 ft | 289 kts | 314° |
| 2026-04-25 21:39 | 55.67061 | -3.11085 | 10080 ft | 282 kts | 290° |
| 2026-04-25 21:39 | 55.67691 | -3.14377 | 9632 ft | 281 kts | 285° |
| 2026-04-25 21:40 | 55.68062 | -3.16569 | 9334 ft | 280 kts | 285° |
| 2026-04-25 21:40 | 55.68795 | -3.20981 | 8747 ft | 278 kts | 284° |
| 2026-04-25 21:40 | 55.69336 | -3.24256 | 8317 ft | 276 kts | 284° |
| 2026-04-25 21:40 | 55.69872 | -3.27509 | 7909 ft | 275 kts | 284° |
| 2026-04-25 21:41 | 55.70406 | -3.30761 | 7587 ft | 274 kts | 285° |
| 2026-04-25 21:41 | 55.70936 | -3.33997 | 7267 ft | 273 kts | 284° |
| 2026-04-25 21:41 | 55.71471 | -3.37220 | 6946 ft | 272 kts | 284° |
| 2026-04-25 21:41 | 55.72000 | -3.40428 | 6625 ft | 271 kts | 284° |
| 2026-04-25 21:42 | 55.72526 | -3.43633 | 6292 ft | 270 kts | 284° |
| 2026-04-25 21:42 | 55.73046 | -3.46816 | 5957 ft | 268 kts | 284° |
| 2026-04-25 21:42 | 55.73559 | -3.49983 | 5635 ft | 266 kts | 284° |
| 2026-04-25 21:42 | 55.74079 | -3.53092 | 5302 ft | 259 kts | 284° |
| 2026-04-25 21:43 | 55.74613 | -3.56081 | 4975 ft | 249 kts | 292° |
| 2026-04-25 21:43 | 55.75648 | -3.58444 | 4630 ft | 243 kts | 321° |
| 2026-04-25 21:43 | 55.77062 | -3.60004 | 4295 ft | 235 kts | 329° |
| 2026-04-25 21:43 | 55.78468 | -3.61366 | 4024 ft | 224 kts | 330° |
| 2026-04-25 21:44 | 55.79789 | -3.62644 | 3996 ft | 213 kts | 330° |
| 2026-04-25 21:44 | 55.81134 | -3.63618 | 3988 ft | 208 kts | 353° |
| 2026-04-25 21:44 | 55.83926 | -3.62551 | 4021 ft | 195 kts | 19° |
| 2026-04-25 21:45 | 55.85160 | -3.61774 | 3861 ft | 186 kts | 19° |
| 2026-04-25 21:45 | 55.85968 | -3.61263 | 3657 ft | 186 kts | 20° |
| 2026-04-25 21:45 | 55.87388 | -3.59511 | 3061 ft | 192 kts | 54° |
| 2026-04-25 21:45 | 55.88098 | -3.57494 | 2685 ft | 191 kts | 62° |
| 2026-04-25 21:46 | 55.88784 | -3.55494 | 2388 ft | 187 kts | 62° |
| 2026-04-25 21:46 | 55.89448 | -3.53554 | 2126 ft | 180 kts | 60° |
| 2026-04-25 21:46 | 55.90086 | -3.51686 | 1876 ft | 173 kts | 62° |
| 2026-04-25 21:46 | 55.90685 | -3.49933 | 1643 ft | 156 kts | 61° |
| 2026-04-25 21:47 | 55.91213 | -3.48385 | 1437 ft | 138 kts | 61° |
| 2026-04-25 21:47 | 55.91708 | -3.46932 | 1227 ft | 138 kts | 59° |
| 2026-04-25 21:47 | 55.92204 | -3.45475 | 1044 ft | 137 kts | 60° |
| 2026-04-25 21:47 | 55.92696 | -3.44029 | 848 ft | 135 kts | 59° |
| 2026-04-25 21:48 | 55.93184 | -3.42593 | 669 ft | 136 kts | 59° |
| 2026-04-25 21:48 | 55.93672 | -3.41157 | 485 ft | 136 kts | 60° |
| 2026-04-25 21:48 | 55.94169 | -3.39718 | 272 ft | 135 kts | 60° |
| 2026-04-25 21:48 | 55.94646 | -3.38295 | 124 ft | 133 kts | 60° |
| 2026-04-25 21:49 | 55.95031 | -3.37149 | 112 ft | 68 kts | 59° |
| 2026-04-25 21:49 | 55.95217 | -3.36604 | 113 ft | 35 kts | 58° |
| 2026-04-25 21:49 | 55.95249 | -3.36421 | 111 ft | 12 kts | 126° |
| 2026-04-25 21:49 | 55.95189 | -3.36346 | 115 ft | 6 kts | 148° |
| 2026-04-25 21:50 | 55.95178 | -3.36335 | 113 ft | 1 kts | 149° |
| 2026-04-25 21:50 | 55.95175 | -3.36331 | 114 ft | 0 kts | 149° |
| 2026-04-25 21:52 | 55.95172 | -3.36328 | 113 ft | 2 kts | 149° |
| 2026-04-25 21:52 | 55.95155 | -3.36315 | 114 ft | 4 kts | 166° |
| 2026-04-25 21:53 | 55.95123 | -3.36331 | 113 ft | 6 kts | 213° |
| 2026-04-25 21:53 | 55.95094 | -3.36402 | 113 ft | 9 kts | 239° |
| 2026-04-25 21:53 | 55.95059 | -3.36505 | 113 ft | 11 kts | 239° |
| 2026-04-25 21:53 | 55.95017 | -3.36627 | 111 ft | 13 kts | 238° |
| 2026-04-25 21:54 | 55.94970 | -3.36767 | 113 ft | 12 kts | 239° |
| 2026-04-25 21:54 | 55.94912 | -3.36820 | 112 ft | 11 kts | 157° |
| 2026-04-25 21:54 | 55.94848 | -3.36780 | 116 ft | 9 kts | 176° |
| 2026-04-25 21:54 | 55.94793 | -3.36777 | 116 ft | 5 kts | 177° |
| 2026-04-25 21:55 | 55.94769 | -3.36762 | 116 ft | 5 kts | 155° |
| 2026-04-25 21:55 | 55.94751 | -3.36704 | 113 ft | 7 kts | 93° |
| 2026-04-25 21:55 | 55.94751 | -3.36629 | 116 ft | 4 kts | 89° |
| 2026-04-25 21:55 | 55.94751 | -3.36618 | 116 ft | 0 kts | 89° |